Flag for USA

Past Weather in 34°09'19.2"N, 118°28'47.0"W, USA — Yesterday and Last 2 Weeks

Currently: 66 °F. Clear. (Weather station: Los Angeles / USC Campus Downtown, USA). See more current weather

Past Weather in 34°09'19.2"N, 118°28'47.0"W — Graph

°F

34°09'19.2"N, 118°28'47.0"W Temperature Yesterday

Maximum temperature yesterday: 78 °F (at 1:52 pm)
Minimum temperature yesterday: 66 °F (at 3:52 am)
Average temperature yesterday: 70 °F

High & Low Weather Summary for the Past Weeks

 TemperatureHumidityPressure
High89 °F (Jul 21, 11:52 am)90% (Jul 26, 5:52 am)30.04 "Hg (Jul 26, 5:52 am)
Low66 °F (Jul 17, 5:52 am)32% (Jul 18, 5:52 pm)29.79 "Hg (Jul 21, 5:52 pm)
Average73 °F68%29.94 "Hg
* Reported Jul 13 2:52 am — Jul 28 2:52 am, 34°09'19.2"N, 118°28'47.0"W. Weather by CustomWeather, © 2021

Note: Actual official high and low records may vary slightly from our data, if they occured in-between our weather recording intervals... More about our weather records

34°09'19.2"N, 118°28'47.0"W Weather History for the Previous 24 Hours

Scroll right to see more
 ConditionsComfort  
Time TempWeatherWind HumidityBarometerVisibility
2:52 am
Wed, Jul 28
66 °FClear.No wind84%29.98 "Hg10 mi
1:52 am66 °FClear.3 mph84%29.98 "Hg10 mi
1:25 am66 °FPassing clouds.No wind84%30.00 "Hg10 mi
12:52 am67 °FClear.3 mph81%29.98 "Hg10 mi
11:52 pm
Tue, Jul 27
67 °FClear.No wind81%29.99 "Hg10 mi
10:52 pm67 °FClear.No wind81%29.99 "Hg10 mi
9:52 pm68 °FClear.3 mph78%29.99 "Hg10 mi
8:52 pm69 °FPassing clouds.No wind76%29.98 "Hg10 mi
7:52 pm70 °FSunny.3 mph73%29.95 "Hg10 mi
6:52 pm73 °FSunny.3 mph69%29.94 "Hg10 mi
5:52 pm75 °FSunny.No wind64%29.93 "Hg10 mi
4:52 pm76 °FSunny.7 mph62%29.93 "Hg10 mi
3:52 pm76 °FSunny.5 mph62%29.95 "Hg10 mi
2:52 pm76 °FSunny.5 mph64%29.97 "Hg10 mi
1:52 pm78 °FSunny.No wind60%29.97 "Hg10 mi
12:52 pm76 °FSunny.No wind64%29.98 "Hg9 mi
11:52 am76 °FSunny.3 mph64%29.98 "Hg9 mi
10:52 am75 °FSunny.No wind66%29.98 "Hg8 mi
10:12 am73 °FScattered clouds.3 mph69%29.99 "Hg8 mi
9:52 am73 °FOvercast.No wind69%29.98 "Hg8 mi
9:22 am69 °FOvercast.No wind79%29.99 "Hg7 mi
8:52 am68 °FLow clouds.5 mph78%29.99 "Hg7 mi
7:52 am67 °FLow clouds.No wind81%29.98 "Hg7 mi
6:52 am66 °FLow clouds.No wind84%29.97 "Hg7 mi
5:52 am66 °FLow clouds.No wind84%29.95 "Hg8 mi
4:52 am66 °FLow clouds.3 mph84%29.95 "Hg7 mi
Weather by CustomWeather, © 2021

See weather overview